createdAt,value
2023-05-20T12:08:10.607Z,1204
2023-05-20T12:09:11.957Z,1172
2023-05-20T12:10:44.034Z,1188
2023-05-20T12:11:45.247Z,1208
2023-05-20T12:12:46.682Z,1228
2023-05-20T12:13:47.125Z,1232
2023-05-20T12:14:48.218Z,1264
2023-05-20T12:15:49.232Z,1300
2023-05-20T12:16:50.472Z,1300
2023-05-20T12:17:51.485Z,1240
2023-05-20T12:18:52.594Z,1228
2023-05-20T12:19:53.715Z,1232
2023-05-20T12:20:54.736Z,1216
2023-05-20T12:21:55.952Z,1152
2023-05-20T12:22:56.409Z,1044
2023-05-20T12:23:57.914Z,1020
2023-05-20T12:24:58.717Z,1160
2023-05-20T12:26:00.022Z,1260
2023-05-20T12:27:01.549Z,1212
2023-05-20T12:28:02.852Z,1096
2023-05-20T12:29:04.264Z,1084
2023-05-20T12:30:05.436Z,1172
2023-05-20T12:31:06.814Z,1196
2023-05-20T12:32:08.264Z,1168
2023-05-20T12:33:09.210Z,1132
2023-05-20T12:34:10.229Z,1108
2023-05-20T12:35:11.474Z,1236
2023-05-20T12:36:43.235Z,1324
2023-05-20T12:37:44.499Z,1364
2023-05-20T12:38:45.481Z,1400
2023-05-20T12:39:45.972Z,1580
2023-05-20T12:40:47.335Z,1772
2023-05-20T12:41:48.704Z,1828
2023-05-20T12:42:49.746Z,1728
2023-05-20T12:43:51.160Z,1620
2023-05-20T12:44:52.244Z,1644
2023-05-20T12:45:53.295Z,1692
2023-05-20T12:46:54.518Z,1740
2023-05-20T12:47:56.039Z,1708
2023-05-20T12:48:56.478Z,1700
2023-05-20T12:49:57.705Z,1600
2023-05-20T12:50:58.715Z,1480
2023-05-20T12:52:01.538Z,1440
2023-05-20T12:53:00.659Z,1264
2023-05-20T12:54:02.207Z,1224
2023-05-20T12:55:03.292Z,1248
2023-05-20T12:56:05.300Z,1264
2023-05-20T12:57:05.482Z,1220
2023-05-20T12:58:06.071Z,1228
2023-05-20T12:59:07.184Z,1168
2023-05-20T13:00:08.182Z,1076
2023-05-20T13:01:08.792Z,1004
2023-05-20T13:02:10.617Z,1084
2023-05-20T13:03:11.687Z,1108
2023-05-20T13:04:42.711Z,1092
2023-05-20T13:05:43.326Z,1108
2023-05-20T13:06:44.686Z,1076
2023-05-20T13:07:45.971Z,1000
2023-05-20T13:08:47.453Z,884
2023-05-20T13:09:48.729Z,884
2023-05-20T13:10:49.880Z,956
2023-05-20T13:11:51.232Z,1024
2023-05-20T13:12:52.199Z,1040
2023-05-20T13:13:53.211Z,1000
2023-05-20T13:14:54.168Z,1012
2023-05-20T13:15:55.341Z,936
2023-05-20T13:16:56.558Z,828
2023-05-20T13:17:57.649Z,880
2023-05-20T13:18:57.983Z,896
2023-05-20T13:19:59.192Z,912
2023-05-20T13:21:00.297Z,880
2023-05-20T13:22:01.501Z,868
2023-05-20T13:23:02.961Z,840
2023-05-20T13:24:03.424Z,820
2023-05-20T13:25:04.706Z,916
2023-05-20T13:26:06.108Z,868
2023-05-20T13:27:07.469Z,840
2023-05-20T13:28:08.043Z,748
2023-05-20T13:29:09.967Z,660
2023-05-20T13:30:10.982Z,756
2023-05-20T13:31:42.714Z,720
2023-05-20T13:32:43.620Z,716
2023-05-20T13:33:44.055Z,696
2023-05-20T13:34:45.205Z,668
2023-05-20T13:35:46.542Z,704
2023-05-20T13:36:47.813Z,732
2023-05-20T13:37:49.227Z,776
2023-05-20T13:38:50.188Z,720
2023-05-20T13:39:51.319Z,724
2023-05-20T13:40:52.814Z,792
2023-05-20T13:41:53.992Z,816
2023-05-20T13:42:55.318Z,744
2023-05-20T13:43:56.960Z,740
2023-05-20T13:44:58.272Z,704
2023-05-20T13:45:59.898Z,656
2023-05-20T13:47:01.324Z,688
2023-05-20T13:48:02.722Z,776
2023-05-20T13:49:03.876Z,884
2023-05-20T13:50:05.301Z,948
2023-05-20T13:51:06.881Z,852
2023-05-20T13:52:08.345Z,840
2023-05-20T13:53:09.744Z,672
2023-05-20T13:54:42.586Z,716
2023-05-20T13:55:44.028Z,736
2023-05-20T13:56:44.988Z,800
2023-05-20T13:57:45.671Z,748
2023-05-20T13:58:46.842Z,660
2023-05-20T13:59:48.274Z,620
2023-05-20T14:00:49.918Z,596
2023-05-20T14:01:51.275Z,560
2023-05-20T14:02:52.848Z,520
2023-05-20T14:03:53.334Z,484
2023-05-20T14:04:54.769Z,448
2023-05-20T14:05:56.416Z,456
2023-05-20T14:06:57.676Z,456
2023-05-20T14:07:58.776Z,468
2023-05-20T14:09:00.182Z,460
2023-05-20T14:10:01.594Z,456
2023-05-20T14:11:02.132Z,440
2023-05-20T14:12:03.430Z,436
2023-05-20T14:13:05.849Z,452
2023-05-20T14:14:05.985Z,444
2023-05-20T14:15:07.540Z,424
2023-05-20T14:16:09.040Z,460
2023-05-20T14:17:10.480Z,600
2023-05-20T14:18:42.297Z,584
2023-05-20T14:19:43.259Z,624
2023-05-20T14:20:44.500Z,596
2023-05-20T14:21:45.475Z,548
2023-05-20T14:22:46.472Z,504
2023-05-20T14:23:47.701Z,524
2023-05-20T14:24:48.707Z,552
2023-05-20T14:25:49.865Z,540
2023-05-20T14:26:51.241Z,512
2023-05-20T14:27:52.727Z,492
2023-05-20T14:28:53.755Z,536
2023-05-20T14:29:55.255Z,616
2023-05-20T14:30:56.753Z,620
2023-05-20T14:31:57.266Z,612
2023-05-20T14:32:58.259Z,628
2023-05-20T14:33:59.291Z,640
2023-05-20T14:35:00.808Z,676
2023-05-20T14:36:02.342Z,716
2023-05-20T14:37:03.807Z,780
2023-05-20T14:38:05.246Z,840
2023-05-20T14:39:05.726Z,856
2023-05-20T14:40:06.745Z,832
2023-05-20T14:41:08.331Z,848
2023-05-20T14:42:10.317Z,896
2023-05-20T14:43:41.675Z,904
2023-05-20T14:44:42.694Z,912
2023-05-20T14:45:44.153Z,880
2023-05-20T14:46:45.564Z,852
2023-05-20T14:47:46.143Z,880
2023-05-20T14:48:47.248Z,860
2023-05-20T14:49:48.381Z,800
2023-05-20T14:50:50.117Z,720
2023-05-20T14:51:50.720Z,752
2023-05-20T14:52:51.815Z,772
2023-05-20T14:53:53.298Z,820
2023-05-20T14:54:54.517Z,844
2023-05-20T14:55:55.523Z,752
2023-05-20T14:56:56.111Z,688
2023-05-20T14:57:57.250Z,600
2023-05-20T14:58:58.251Z,592
2023-05-20T14:59:59.258Z,564
2023-05-20T15:01:00.802Z,644
2023-05-20T15:02:02.408Z,716
2023-05-20T15:03:03.900Z,656
2023-05-20T15:04:05.214Z,620
2023-05-20T15:05:06.218Z,600
2023-05-20T15:06:07.196Z,628
2023-05-20T15:07:08.452Z,704
2023-05-20T15:08:40.323Z,704
2023-05-20T15:09:41.714Z,648
2023-05-20T15:10:42.882Z,608
2023-05-20T15:11:44.633Z,596
2023-05-20T15:12:46.052Z,628
2023-05-20T15:13:47.214Z,628
2023-05-20T15:14:48.201Z,616
2023-05-20T15:15:49.263Z,644
2023-05-20T15:16:50.847Z,684
2023-05-20T15:17:52.309Z,692
2023-05-20T15:18:53.835Z,656
2023-05-20T15:19:55.234Z,624
2023-05-20T15:20:56.478Z,604
2023-05-20T15:21:57.491Z,564
2023-05-20T15:23:00.364Z,556
2023-05-20T15:23:59.672Z,548
2023-05-20T15:25:00.784Z,540
2023-05-20T15:26:01.739Z,532
2023-05-20T15:27:02.801Z,516
2023-05-20T15:28:04.273Z,524
2023-05-20T15:29:05.474Z,496
2023-05-20T15:30:06.495Z,460
2023-05-20T15:31:06.935Z,472
2023-05-20T15:32:08.273Z,564
2023-05-20T15:33:40.875Z,572
2023-05-20T15:34:41.831Z,604
2023-05-20T15:35:43.388Z,620
2023-05-20T15:36:44.841Z,632
2023-05-20T15:37:46.219Z,652
2023-05-20T15:38:47.203Z,660
2023-05-20T15:39:48.197Z,660
2023-05-20T15:40:49.557Z,664
2023-05-20T15:41:51.038Z,672
2023-05-20T15:42:52.008Z,676
2023-05-20T15:43:53.189Z,684
2023-05-20T15:44:54.427Z,692
2023-05-20T15:45:55.814Z,696
2023-05-20T15:46:57.008Z,700
2023-05-20T15:47:58.013Z,700
2023-05-20T15:48:59.222Z,700
2023-05-20T15:50:00.261Z,704
2023-05-20T15:51:01.343Z,704
2023-05-20T15:52:04.239Z,708
2023-05-20T15:53:03.763Z,704
2023-05-20T15:54:04.845Z,700
2023-05-20T15:55:06.274Z,696
2023-05-20T15:56:06.786Z,688
2023-05-20T15:57:07.845Z,668
2023-05-20T15:58:40.538Z,660
2023-05-20T15:59:41.752Z,644
2023-05-20T16:00:42.784Z,628
2023-05-20T16:01:44.066Z,612
2023-05-20T16:02:45.172Z,596
2023-05-20T16:03:46.551Z,580
2023-05-20T16:04:47.969Z,564
2023-05-20T16:05:49.383Z,548
2023-05-20T16:06:50.982Z,544
2023-05-20T16:07:52.281Z,516
2023-05-20T16:08:52.814Z,516
2023-05-20T16:09:53.302Z,512
2023-05-20T16:10:54.016Z,516
2023-05-20T16:11:55.272Z,516
2023-05-20T16:12:56.200Z,520
2023-05-20T16:13:57.200Z,528
2023-05-20T16:14:58.286Z,536
2023-05-20T16:15:59.836Z,548
2023-05-20T16:17:00.784Z,556
2023-05-20T16:18:01.791Z,568
2023-05-20T16:19:03.581Z,592
2023-05-20T16:20:03.900Z,604
2023-05-20T16:21:04.415Z,608
2023-05-20T16:22:05.809Z,604
2023-05-20T16:23:07.203Z,584
2023-05-20T16:24:08.262Z,588
2023-05-20T16:25:40.996Z,596
2023-05-20T16:26:42.050Z,588
2023-05-20T16:27:43.544Z,612
2023-05-20T16:28:44.549Z,636
2023-05-20T16:29:45.875Z,656
2023-05-20T16:30:47.276Z,672
2023-05-20T16:31:48.729Z,676
2023-05-20T16:32:49.847Z,680
2023-05-20T16:33:50.826Z,692
2023-05-20T16:34:52.307Z,700
2023-05-20T16:35:53.781Z,692
2023-05-20T16:36:55.212Z,676
2023-05-20T16:37:56.231Z,672
2023-05-20T16:38:57.297Z,680
2023-05-20T16:39:58.824Z,696
2023-05-20T16:40:59.978Z,716
2023-05-20T16:42:01.195Z,736
2023-05-20T16:43:02.435Z,748
2023-05-20T16:44:03.864Z,760
2023-05-20T16:45:05.213Z,772
2023-05-20T16:46:06.278Z,780
2023-05-20T16:47:07.237Z,788
2023-05-20T16:48:08.704Z,812
2023-05-20T16:49:40.507Z,828
2023-05-20T16:50:41.480Z,848
2023-05-20T16:51:42.512Z,872
2023-05-20T16:52:43.157Z,916
2023-05-20T16:53:44.247Z,952
2023-05-20T16:54:45.356Z,992
2023-05-20T16:55:46.798Z,996
2023-05-20T16:56:48.256Z,1012
2023-05-20T16:57:49.379Z,1024
2023-05-20T16:58:52.779Z,1028
2023-05-20T16:59:51.787Z,1040
2023-05-20T17:00:53.277Z,1044
2023-05-20T17:01:54.272Z,1032
2023-05-20T17:02:55.532Z,1036
2023-05-20T17:03:56.573Z,1048
2023-05-20T17:04:58.052Z,1056
2023-05-20T17:05:59.519Z,1068
2023-05-20T17:06:59.961Z,1084
2023-05-20T17:08:01.249Z,1080
2023-05-20T17:09:02.257Z,1072
2023-05-20T17:10:03.899Z,1056
2023-05-20T17:11:05.270Z,1052
2023-05-20T17:12:06.532Z,1056
2023-05-20T17:13:07.514Z,1052
2023-05-20T17:14:09.010Z,1044
2023-05-20T17:15:40.822Z,1044
2023-05-20T17:16:42.039Z,1068
2023-05-20T17:17:42.574Z,1048
2023-05-20T17:18:43.867Z,1036
2023-05-20T17:19:45.420Z,1044
2023-05-20T17:20:46.796Z,1036
2023-05-20T17:21:47.792Z,1004
2023-05-20T17:22:49.237Z,980
2023-05-20T17:23:50.207Z,932
2023-05-20T17:24:51.301Z,892
2023-05-20T17:25:52.283Z,868
2023-05-20T17:26:53.751Z,840
2023-05-20T17:27:55.008Z,828
2023-05-20T17:28:56.237Z,796
2023-05-20T17:29:57.330Z,740
2023-05-20T17:30:58.764Z,700
2023-05-20T17:31:59.715Z,672
2023-05-20T17:33:01.106Z,636
2023-05-20T17:34:02.601Z,616
2023-05-20T17:35:04.028Z,580
2023-05-20T17:36:05.050Z,564
2023-05-20T17:37:05.455Z,564
2023-05-20T17:38:06.905Z,544
2023-05-20T17:39:39.496Z,548
2023-05-20T17:40:40.542Z,556
2023-05-20T17:41:43.535Z,556
2023-05-20T17:42:42.541Z,552
2023-05-20T17:43:44.018Z,540
2023-05-20T17:44:45.273Z,532
2023-05-20T17:45:45.703Z,520
2023-05-20T17:46:46.790Z,500
2023-05-20T17:47:47.765Z,464
2023-05-20T17:48:48.820Z,428
2023-05-20T17:49:50.260Z,392
2023-05-20T17:50:51.263Z,356
2023-05-20T17:51:52.257Z,336
2023-05-20T17:52:53.312Z,312
2023-05-20T17:53:54.771Z,296
2023-05-20T17:54:56.248Z,284
2023-05-20T17:55:57.292Z,276
2023-05-20T17:56:58.197Z,272
2023-05-20T17:57:58.626Z,264
2023-05-20T17:59:00.026Z,256
2023-05-20T18:00:01.276Z,248
2023-05-20T18:01:02.548Z,236
2023-05-20T18:02:03.900Z,228
2023-05-20T18:03:05.356Z,216
2023-05-20T18:04:06.817Z,200
2023-05-20T18:05:39.013Z,200
2023-05-20T18:06:40.056Z,200
2023-05-20T18:07:41.038Z,200
2023-05-20T18:08:42.015Z,192
2023-05-20T18:09:43.091Z,180
2023-05-20T18:10:44.521Z,180
2023-05-20T18:11:45.739Z,180
2023-05-20T18:12:46.761Z,192
2023-05-20T18:13:47.715Z,208
2023-05-20T18:14:48.758Z,212
2023-05-20T18:15:50.057Z,204
2023-05-20T18:16:50.576Z,196
2023-05-20T18:17:51.766Z,184
2023-05-20T18:18:52.761Z,180
2023-05-20T18:19:53.164Z,180
2023-05-20T18:20:54.511Z,180
2023-05-20T18:21:55.755Z,180
2023-05-20T18:22:56.739Z,176
2023-05-20T18:23:57.713Z,172
2023-05-20T18:24:58.837Z,168
2023-05-20T18:26:00.269Z,160
2023-05-20T18:27:01.600Z,152
2023-05-20T18:28:03.025Z,148
2023-05-20T18:29:04.007Z,136
2023-05-20T18:30:05.228Z,128
2023-05-20T18:31:05.801Z,124
2023-05-20T18:32:06.293Z,116
2023-05-20T18:33:38.500Z,112
2023-05-20T18:34:39.518Z,104
2023-05-20T18:35:41.037Z,100
2023-05-20T18:36:42.496Z,92
2023-05-20T18:37:44.025Z,92
2023-05-20T18:38:45.026Z,88
2023-05-20T18:39:46.004Z,84
2023-05-20T18:40:47.010Z,76
2023-05-20T18:41:48.118Z,72
2023-05-20T18:42:49.630Z,68
2023-05-20T18:43:50.766Z,64
2023-05-20T18:44:52.330Z,60
2023-05-20T18:45:53.721Z,56
2023-05-20T18:46:54.175Z,52
2023-05-20T18:47:55.291Z,48
2023-05-20T18:48:56.511Z,48
2023-05-20T18:49:56.977Z,40
2023-05-20T18:50:58.247Z,40
2023-05-20T18:51:59.272Z,36
2023-05-20T18:53:00.324Z,36
2023-05-20T18:54:01.731Z,32
2023-05-20T18:55:02.757Z,36
2023-05-20T18:56:03.817Z,32
2023-05-20T18:57:05.262Z,28
2023-05-20T18:58:06.600Z,24
2023-05-20T18:59:38.525Z,24
2023-05-20T19:00:40.143Z,20
2023-05-20T19:01:41.523Z,20
2023-05-20T19:02:42.857Z,16
2023-05-20T19:03:44.476Z,12
2023-05-20T19:04:45.721Z,12
2023-05-20T19:05:46.331Z,16
2023-05-20T19:06:46.635Z,12
2023-05-20T19:07:47.816Z,8
2023-05-20T19:08:49.481Z,12
2023-05-20T19:09:50.794Z,8
2023-05-20T19:10:52.280Z,8
2023-05-20T19:11:53.324Z,8
2023-05-20T19:12:54.758Z,4
2023-05-20T19:13:56.041Z,4
2023-05-20T19:14:57.005Z,8
2023-05-20T19:15:57.479Z,4
2023-05-20T19:16:58.594Z,4
2023-05-20T19:17:59.728Z,4
2023-05-20T19:19:01.086Z,4
2023-05-20T19:20:01.444Z,4
2023-05-20T19:21:01.890Z,0
2023-05-20T19:22:02.303Z,0
2023-05-20T19:23:03.493Z,4
2023-05-20T19:24:04.529Z,4
2023-05-20T19:25:05.567Z,0
2023-05-20T19:26:06.622Z,0
2023-05-20T19:27:38.185Z,0
2023-05-20T19:28:39.263Z,0
2023-05-20T19:29:40.278Z,0
2023-05-20T19:30:41.589Z,0
2023-05-20T19:31:41.969Z,0
2023-05-20T19:32:43.434Z,0
2023-05-20T19:33:44.684Z,0
2023-05-20T19:34:46.018Z,0
2023-05-20T19:35:47.278Z,0
2023-05-20T19:36:48.260Z,0
2023-05-20T19:37:49.227Z,0
2023-05-20T19:38:50.238Z,0
2023-05-20T19:39:51.315Z,0
2023-05-20T19:40:52.394Z,0
2023-05-20T19:41:53.749Z,0
2023-05-20T19:42:54.714Z,0
2023-05-20T19:43:55.989Z,0
2023-05-20T19:44:57.053Z,0
2023-05-20T19:45:57.504Z,0
2023-05-20T19:46:58.701Z,0
2023-05-20T19:47:59.964Z,0
2023-05-20T19:49:00.696Z,0
2023-05-20T19:50:01.837Z,0
2023-05-20T19:51:02.745Z,0
2023-05-20T19:52:03.718Z,0
2023-05-20T19:53:04.746Z,0
2023-05-20T19:54:05.736Z,0
2023-05-20T19:55:37.800Z,0
2023-05-20T19:56:37.962Z,0
2023-05-20T19:57:39.025Z,0
2023-05-20T19:58:40.018Z,0
2023-05-20T19:59:41.017Z,0
2023-05-20T20:00:42.045Z,0
2023-05-20T20:01:43.092Z,0
2023-05-20T20:02:44.520Z,0
2023-05-20T20:03:45.516Z,0
2023-05-20T20:04:46.558Z,0
2023-05-20T20:05:47.602Z,0
2023-05-20T20:06:48.778Z,0
2023-05-20T20:07:49.761Z,0
2023-05-20T20:08:51.021Z,0
2023-05-20T20:09:52.038Z,0
2023-05-20T20:10:52.516Z,0
2023-05-20T20:11:52.946Z,0
2023-05-20T20:12:54.223Z,0
2023-05-20T20:13:55.244Z,0
2023-05-20T20:14:56.230Z,0
2023-05-20T20:15:57.356Z,0
2023-05-20T20:16:58.220Z,0
2023-05-20T20:17:58.710Z,0
2023-05-20T20:18:59.979Z,0
2023-05-20T20:20:00.410Z,0
2023-05-20T20:21:00.871Z,0
2023-05-20T20:22:02.378Z,0
2023-05-20T20:23:02.876Z,0
2023-05-20T20:24:04.234Z,0
2023-05-20T20:25:05.238Z,0
2023-05-20T20:26:36.506Z,0
2023-05-20T20:27:37.800Z,0
2023-05-20T20:28:39.098Z,0
2023-05-20T20:29:40.563Z,0
2023-05-20T20:30:42.041Z,0
2023-05-20T20:31:43.118Z,0
2023-05-20T20:32:44.543Z,0
2023-05-20T20:33:46.019Z,0
2023-05-20T20:34:47.564Z,0
2023-05-20T20:35:48.809Z,0
2023-05-20T20:36:50.267Z,0
2023-05-20T20:37:51.521Z,0
2023-05-20T20:38:52.616Z,0
2023-05-20T20:39:53.084Z,0
2023-05-20T20:40:54.391Z,0
2023-05-20T20:41:55.837Z,0
2023-05-20T20:42:56.249Z,0
2023-05-20T20:43:56.715Z,0
2023-05-20T20:44:57.795Z,0
2023-05-20T20:45:58.732Z,0
2023-05-20T20:47:00.125Z,0
2023-05-20T20:48:01.048Z,0
2023-05-20T20:49:02.009Z,0
2023-05-20T20:50:03.266Z,0
2023-05-20T20:51:04.262Z,0
2023-05-20T20:52:05.704Z,0
2023-05-20T20:53:37.519Z,0
2023-05-20T20:54:39.575Z,0
2023-05-20T20:55:40.027Z,0
2023-05-20T20:56:40.483Z,0
2023-05-20T20:57:41.765Z,0
2023-05-20T20:58:42.742Z,0
2023-05-20T20:59:43.755Z,0
2023-05-20T21:00:45.157Z,0
2023-05-20T21:01:45.758Z,0
2023-05-20T21:02:46.997Z,0
2023-05-20T21:03:48.256Z,0
2023-05-20T21:04:49.318Z,0
2023-05-20T21:05:50.494Z,0
2023-05-20T21:06:51.784Z,0
2023-05-20T21:07:52.937Z,0
2023-05-20T21:08:54.035Z,0
2023-05-20T21:09:55.129Z,0
2023-05-20T21:10:55.558Z,0
2023-05-20T21:11:56.790Z,0
2023-05-20T21:12:58.075Z,0
2023-05-20T21:13:59.034Z,0
2023-05-20T21:14:59.468Z,0
2023-05-20T21:16:00.742Z,0
2023-05-20T21:17:01.835Z,0
2023-05-20T21:18:03.101Z,0
2023-05-20T21:19:04.098Z,0
2023-05-20T21:20:36.529Z,0
2023-05-20T21:21:37.075Z,0
2023-05-20T21:22:38.273Z,0
2023-05-20T21:23:39.269Z,0
2023-05-20T21:24:40.526Z,0
2023-05-20T21:25:41.543Z,0
2023-05-20T21:26:42.036Z,0
2023-05-20T21:27:43.447Z,0
2023-05-20T21:28:44.810Z,0
2023-05-20T21:29:45.763Z,0
2023-05-20T21:30:46.778Z,0
2023-05-20T21:31:47.874Z,0
2023-05-20T21:32:49.371Z,0
2023-05-20T21:33:50.535Z,0
2023-05-20T21:34:51.544Z,0
2023-05-20T21:35:52.530Z,0
2023-05-20T21:36:53.850Z,0
2023-05-20T21:37:54.455Z,0
2023-05-20T21:38:55.767Z,0
2023-05-20T21:39:56.792Z,0
2023-05-20T21:40:57.838Z,0
2023-05-20T21:41:59.293Z,0
2023-05-20T21:43:00.564Z,0
2023-05-20T21:44:02.044Z,0
2023-05-20T21:45:02.548Z,0
2023-05-20T21:46:03.776Z,0
2023-05-20T21:47:35.416Z,0
2023-05-20T21:48:36.823Z,0
2023-05-20T21:49:38.031Z,0
2023-05-20T21:50:39.596Z,0
2023-05-20T21:51:39.994Z,0
2023-05-20T21:52:41.287Z,0
2023-05-20T21:53:42.241Z,0
2023-05-20T21:54:43.545Z,0
2023-05-20T21:55:44.587Z,0
2023-05-20T21:56:46.096Z,0
2023-05-20T21:57:47.337Z,0
2023-05-20T21:58:48.829Z,0
2023-05-20T21:59:49.753Z,0
2023-05-20T22:00:50.778Z,0
2023-05-20T22:01:51.803Z,0
2023-05-20T22:02:52.999Z,0
2023-05-20T22:03:54.207Z,0
2023-05-20T22:04:55.063Z,0
2023-05-20T22:05:56.067Z,0
2023-05-20T22:06:57.307Z,0
2023-05-20T22:07:58.413Z,0
2023-05-20T22:08:59.807Z,0
2023-05-20T22:10:01.319Z,0
2023-05-20T22:11:02.382Z,0
2023-05-20T22:12:03.273Z,0
2023-05-20T22:13:04.559Z,0
2023-05-20T22:14:35.850Z,0
2023-05-20T22:15:37.288Z,0
2023-05-20T22:16:38.111Z,0
2023-05-20T22:17:38.650Z,0
2023-05-20T22:18:39.996Z,0
2023-05-20T22:19:41.310Z,0
2023-05-20T22:20:42.267Z,0
2023-05-20T22:21:50.338Z,0
2023-05-20T22:22:44.919Z,0
2023-05-20T22:23:46.293Z,0
2023-05-20T22:24:47.594Z,0
2023-05-20T22:25:49.053Z,0
2023-05-20T22:26:50.444Z,0
2023-05-20T22:27:51.814Z,0
2023-05-20T22:28:52.810Z,0
2023-05-20T22:29:53.393Z,0
2023-05-20T22:30:53.882Z,0
2023-05-20T22:31:55.427Z,0
2023-05-20T22:32:56.527Z,0
2023-05-20T22:33:57.814Z,0
2023-05-20T22:34:59.068Z,0
2023-05-20T22:36:00.586Z,0
2023-05-20T22:37:01.872Z,0
2023-05-20T22:38:03.365Z,0
2023-05-20T22:39:36.079Z,0
2023-05-20T22:40:37.596Z,0
2023-05-20T22:41:38.044Z,0
2023-05-20T22:42:38.824Z,0
2023-05-20T22:43:39.925Z,0
2023-05-20T22:44:41.431Z,0
2023-05-20T22:45:42.899Z,0
2023-05-20T22:46:44.440Z,0
2023-05-20T22:47:45.028Z,0
2023-05-20T22:48:46.338Z,0
2023-05-20T22:49:47.823Z,0
2023-05-20T22:50:49.319Z,0
2023-05-20T22:51:50.232Z,0
2023-05-20T22:52:51.298Z,0
2023-05-20T22:53:52.444Z,0
2023-05-20T22:54:53.771Z,0
2023-05-20T22:55:54.770Z,0
2023-05-20T22:56:55.752Z,0
2023-05-20T22:57:56.809Z,0
2023-05-20T22:58:57.850Z,0
2023-05-20T22:59:59.107Z,0
2023-05-20T23:01:00.599Z,0
2023-05-20T23:02:01.844Z,0
2023-05-20T23:03:03.400Z,0
2023-05-20T23:04:35.093Z,0
2023-05-20T23:05:36.357Z,0
2023-05-20T23:06:37.032Z,0
2023-05-20T23:07:38.031Z,0
2023-05-20T23:08:39.630Z,0
2023-05-20T23:09:41.063Z,0
2023-05-20T23:10:42.282Z,0
2023-05-20T23:11:43.534Z,0
2023-05-20T23:12:44.523Z,0
2023-05-20T23:13:45.123Z,0
2023-05-20T23:14:46.301Z,0
2023-05-20T23:15:47.290Z,0
2023-05-20T23:16:48.401Z,0
2023-05-20T23:17:51.989Z,0
2023-05-20T23:18:50.402Z,0
2023-05-20T23:19:51.758Z,0
2023-05-20T23:20:53.051Z,0
2023-05-20T23:21:54.048Z,0
2023-05-20T23:22:54.456Z,0
2023-05-20T23:23:55.852Z,0
2023-05-20T23:24:57.288Z,0
2023-05-20T23:25:58.348Z,0
2023-05-20T23:26:59.268Z,0
2023-05-20T23:28:00.557Z,0
2023-05-20T23:29:01.847Z,0
2023-05-20T23:30:03.726Z,0
2023-05-20T23:31:35.539Z,0
2023-05-20T23:32:36.590Z,0
2023-05-20T23:33:37.722Z,0
2023-05-20T23:34:38.623Z,0
2023-05-20T23:35:40.074Z,0
2023-05-20T23:36:41.043Z,0
2023-05-20T23:37:42.288Z,0
2023-05-20T23:38:43.255Z,0
2023-05-20T23:39:44.336Z,0
2023-05-20T23:40:45.351Z,0
2023-05-20T23:41:46.560Z,0
2023-05-20T23:42:47.547Z,0
2023-05-20T23:43:48.562Z,0
2023-05-20T23:44:49.789Z,0
2023-05-20T23:45:50.873Z,0
2023-05-20T23:46:52.304Z,0
2023-05-20T23:47:53.269Z,0
2023-05-20T23:48:54.243Z,0
2023-05-20T23:49:55.398Z,0
2023-05-20T23:50:56.927Z,0
2023-05-20T23:51:58.473Z,0
2023-05-20T23:52:59.551Z,0
2023-05-20T23:54:00.553Z,0
2023-05-20T23:55:01.655Z,0
2023-05-20T23:56:03.057Z,0
2023-05-20T23:57:34.273Z,0
2023-05-20T23:58:35.570Z,0
2023-05-20T23:59:36.555Z,0
